CheckWX is a tool to help pilots better visualize weather data.  It is not intended as a substitute for an official pre-flight weather briefing.

15:04:22 UTC

OICS METAR
Sanandaj Airport
Iran
Current

4 hours ago

OICS 071100Z 20004KT 9999 FEW030 SCT035TCU BKN090 09/04 Q1014 A2996
Observed
Dec-7 @ 11:00 UTC
Wind
  • 200° at 4 KTS
Visibility
10,000+ meters
Flight Rules
VFR
Cloud Levels
  • Few at 3,000' AGL
  • Scattered at 3,500' AGL
  • Broken at 9,000' AGL
Temperature
C / 48°F
Dewpoint
C / 39°F
Humidity
71%
Altimeter
29.94" Hg
Pressure
1013.92 hPa
Previous

5 hours ago

OICS 071000Z 17002KT 9999 FEW030 SCT035TCU BKN090 09/04 Q1015 A2999
Observed
Dec-7 @ 10:00 UTC
Wind
  • 170° at 2 KTS
Visibility
10,000+ meters
Flight Rules
VFR
Cloud Levels
  • Few at 3,000' AGL
  • Scattered at 3,500' AGL
  • Broken at 9,000' AGL
Temperature
C / 48°F
Dewpoint
C / 39°F
Humidity
71%
Altimeter
29.97" Hg
Pressure
1014.92 hPa
Previous

6 hours ago

OICS 070900Z 20002KT 9000 FEW030 SCT035TCU BKN180 09/04 Q1016 A3002
Observed
Dec-7 @ 09:00 UTC
Wind
  • 200° at 2 KTS
Visibility
9,000 meters
Flight Rules
VFR
Cloud Levels
  • Few at 3,000' AGL
  • Scattered at 3,500' AGL
  • Broken at 18,000' AGL
Temperature
C / 48°F
Dewpoint
C / 39°F
Humidity
71%
Altimeter
30" Hg
Pressure
1015.92 hPa